Time;durP1;ratioP1;P1;durP2;ratioP2;P2;SDS_P1;SDS_P2;PMS_P1;PMS_P2;Temp;Humidity;BMP_temperature;BMP_pressure;BME280_temperature;BME280_humidity;BME280_pressure;Samples;Min_cycle;Max_cycle;Signal;HPM_P1;HPM_P2
2023/03/18 00:00:40;;;;;;;;;;;;;;;;;;5076496;28;19995;-75
2023/03/18 00:03:06;;;;;;;;;;;;;;;;;;5076793;28;19930;-75
2023/03/18 00:05:33;;;;;;;;;;;;;;;;;;5076418;28;19916;-76
2023/03/18 00:07:59;;;;;;;;;;;;;;;;;;5076392;28;19912;-77
2023/03/18 00:10:25;;;;;;;;;;;;;;;;;;5076277;28;20351;-76
2023/03/18 00:12:52;;;;;;;;;;;;;;;;;;5076288;28;20331;-77
2023/03/18 00:15:18;;;;;;;;;;;;;;;;;;5074931;28;20003;-76
2023/03/18 00:17:44;;;;;;;;;;;;;;;;;;5074933;28;20345;-78
2023/03/18 00:20:11;;;;;;;;;;;;;;;;;;5076219;28;20430;-77
2023/03/18 00:22:37;;;;;;;;;;;;;;;;;;5076148;28;19958;-76
2023/03/18 00:25:03;;;;;;;;;;;;;;;;;;5076256;28;19916;-76
2023/03/18 00:27:29;;;;;;;;;;;;;;;;;;5074736;28;19913;-77
2023/03/18 00:29:56;;;;;;;;;;;;;;;;;;5076022;28;19912;-77
2023/03/18 00:32:22;;;;;;;;;;;;;;;;;;5075477;28;20261;-75
2023/03/18 00:34:49;;;;;;;;;;;;;;;;;;5075889;28;19915;-76
2023/03/18 00:37:26;;;;;;;;;;;;;;;;;;5075911;28;20419;-74
2023/03/18 00:39:52;;;;;;;;;;;;;;;;;;5075915;28;19921;-77
2023/03/18 00:42:18;;;;;;;;;;;;;;;;;;5075854;28;19909;-77
2023/03/18 00:44:45;;;;;;;;;;;;;;;;;;5075754;28;19909;-76
2023/03/18 00:47:11;;;;;;;;;;;;;;;;;;5075691;28;19915;-75
2023/03/18 00:49:37;;;;;;;;;;;;;;;;;;5075568;28;19912;-76
2023/03/18 00:52:03;;;;;;;;;;;;;;;;;;5075797;28;20288;-74
2023/03/18 00:54:29;;;;;;;;;;;;;;;;;;5075663;28;19912;-76
2023/03/18 00:56:56;;;;;;;;;;;;;;;;;;5075442;28;20002;-75
2023/03/18 00:59:22;;;;;;;;;;;;;;;;;;5075616;28;19962;-75
2023/03/18 01:01:48;;;;;;;;;;;;;;;;;;5075385;28;20345;-75
2023/03/18 01:04:14;;;;;;;;;;;;;;;;;;5075486;28;19915;-76
2023/03/18 01:06:40;;;;;;;;;;;;;;;;;;5075309;28;20372;-76
2023/03/18 01:09:07;;;;;;;;;;;;;;;;;;5075165;28;19908;-76
2023/03/18 01:11:33;;;;;;;;;;;;;;;;;;5075400;28;20286;-76
2023/03/18 01:13:59;;;;;;;;;;;;;;;;;;5075463;28;19912;-79
2023/03/18 01:16:25;;;;;;;;;;;;;;;;;;5075359;28;20316;-75
2023/03/18 01:18:52;;;;;;;;;;;;;;;;;;5075059;28;19916;-76
2023/03/18 01:21:18;;;;;;;;;;;;;;;;;;5074991;28;19912;-75
2023/03/18 01:23:44;;;;;;;;;;;;;;;;;;5073607;28;20499;-77
2023/03/18 01:26:10;;;;;;;;;;;;;;;;;;5074871;28;20383;-74
2023/03/18 01:28:36;;;;;;;;;;;;;;;;;;5074858;28;19912;-76
2023/03/18 01:31:02;;;;;;;;;;;;;;;;;;5073431;28;20369;-76
2023/03/18 01:33:28;;;;;;;;;;;;;;;;;;5074725;28;19915;-78
2023/03/18 01:35:54;;;;;;;;;;;;;;;;;;5074688;28;20353;-76
2023/03/18 01:38:20;;;;;;;;;;;;;;;;;;5074607;28;19916;-75
2023/03/18 01:40:46;;;;;;;;;;;;;;;;;;5074207;28;19924;-76
2023/03/18 01:43:12;;;;;;;;;;;;;;;;;;5073607;28;19934;-75
2023/03/18 01:45:39;;;;;;;;;;;;;;;;;;5074721;28;19995;-77
2023/03/18 01:48:05;;;;;;;;;;;;;;;;;;5074428;28;19912;-76
2023/03/18 01:50:31;;;;;;;;;;;;;;;;;;5074303;28;19919;-76
2023/03/18 01:52:56;;;;;;;;;;;;;;;;;;5074350;28;19908;-76
2023/03/18 01:55:22;;;;;;;;;;;;;;;;;;5074673;28;19908;-77
2023/03/18 01:57:48;;;;;;;;;;;;;;;;;;5074370;28;19955;-76
2023/03/18 02:00:15;;;;;;;;;;;;;;;;;;5074372;28;19961;-75
2023/03/18 02:02:41;;;;;;;;;;;;;;;;;;5074152;28;20003;-75
2023/03/18 02:05:08;;;;;;;;;;;;;;;;;;5074150;28;19948;-77
2023/03/18 02:07:34;;;;;;;;;;;;;;;;;;5074387;28;19947;-75
2023/03/18 02:10:01;;;;;;;;;;;;;;;;;;5074058;28;20399;-77
2023/03/18 02:12:28;;;;;;;;;;;;;;;;;;5074182;28;19908;-77
2023/03/18 02:14:54;;;;;;;;;;;;;;;;;;5074068;28;19965;-76
2023/03/18 02:17:20;;;;;;;;;;;;;;;;;;5074161;28;19916;-76
2023/03/18 02:19:46;;;;;;;;;;;;;;;;;;5073983;28;19948;-76
2023/03/18 02:22:12;;;;;;;;;;;;;;;;;;5073996;28;19908;-76
2023/03/18 02:24:38;;;;;;;;;;;;;;;;;;5073929;28;19932;-75
2023/03/18 02:27:04;;;;;;;;;;;;;;;;;;5074285;28;20334;-76
2023/03/18 02:29:30;;;;;;;;;;;;;;;;;;5073762;28;19955;-76
2023/03/18 02:31:56;;;;;;;;;;;;;;;;;;5073962;28;19908;-76
2023/03/18 02:34:22;;;;;;;;;;;;;;;;;;5073771;28;19931;-74
2023/03/18 02:36:48;;;;;;;;;;;;;;;;;;5073755;28;20388;-76
2023/03/18 02:39:14;;;;;;;;;;;;;;;;;;5073786;28;19922;-76
2023/03/18 02:41:40;;;;;;;;;;;;;;;;;;5073866;28;19999;-76
2023/03/18 02:44:06;;;;;;;;;;;;;;;;;;5073659;28;19912;-77
2023/03/18 02:46:32;;;;;;;;;;;;;;;;;;5072356;28;19908;-77
2023/03/18 02:48:58;;;;;;;;;;;;;;;;;;5073929;28;19948;-75
2023/03/18 02:51:24;;;;;;;;;;;;;;;;;;5073512;28;19912;-76
2023/03/18 02:53:50;;;;;;;;;;;;;;;;;;5075609;28;19956;-75
2023/03/18 02:56:16;;;;;;;;;;;;;;;;;;5080184;28;19931;-75
2023/03/18 02:58:42;;;;;;;;;;;;;;;;;;5080570;28;19908;-77
2023/03/18 03:01:08;;;;;;;;;;;;;;;;;;5080182;28;19915;-76
2023/03/18 03:03:34;;;;;;;;;;;;;;;;;;5080319;28;20324;-76
2023/03/18 03:06:00;;;;;;;;;;;;;;;;;;5078833;28;19996;-75
2023/03/18 03:08:26;;;;;;;;;;;;;;;;;;5080107;28;20369;-73
2023/03/18 03:10:52;;;;;;;;;;;;;;;;;;5080308;28;19913;-76
2023/03/18 03:13:18;;;;;;;;;;;;;;;;;;5080089;28;19916;-75
2023/03/18 03:15:44;;;;;;;;;;;;;;;;;;5080018;28;19908;-75
2023/03/18 03:18:10;;;;;;;;;;;;;;;;;;5080031;28;19999;-76
2023/03/18 03:20:37;;;;;;;;;;;;;;;;;;5079996;28;19908;-75
2023/03/18 03:23:03;;;;;;;;;;;;;;;;;;5080250;28;19908;-77
2023/03/18 03:25:29;;;;;;;;;;;;;;;;;;5080119;28;19966;-74
2023/03/18 03:27:55;;;;;;;;;;;;;;;;;;5079928;28;19908;-77
2023/03/18 03:30:22;;;;;;;;;;;;;;;;;;5080377;28;19920;-75
2023/03/18 03:32:48;;;;;;;;;;;;;;;;;;5079851;28;19909;-76
2023/03/18 03:35:14;;;;;;;;;;;;;;;;;;5079869;28;19908;-77
2023/03/18 03:37:40;;;;;;;;;;;;;;;;;;5079854;28;20292;-75
2023/03/18 03:40:07;;;;;;;;;;;;;;;;;;5078301;28;19927;-75
2023/03/18 03:42:32;;;;;;;;;;;;;;;;;;5079795;28;20373;-75
2023/03/18 03:44:58;;;;;;;;;;;;;;;;;;5080067;28;19909;-78
2023/03/18 03:47:24;;;;;;;;;;;;;;;;;;5079765;28;19909;-76
2023/03/18 03:49:51;;;;;;;;;;;;;;;;;;5079742;28;20483;-78
2023/03/18 03:52:18;;;;;;;;;;;;;;;;;;5079769;28;19909;-77
2023/03/18 03:54:44;;;;;;;;;;;;;;;;;;5078426;28;19909;-76
2023/03/18 03:57:10;;;;;;;;;;;;;;;;;;5078287;28;19908;-78
2023/03/18 03:59:36;;;;;;;;;;;;;;;;;;5079693;28;19970;-75
2023/03/18 04:02:02;;;;;;;;;;;;;;;;;;5080032;28;19912;-77
2023/03/18 04:04:28;;;;;;;;;;;;;;;;;;5079918;28;19912;-75
2023/03/18 04:06:54;;;;;;;;;;;;;;;;;;5075587;28;19908;-76
2023/03/18 04:09:20;;;;;;;;;;;;;;;;;;5076355;28;19909;-76
2023/03/18 04:11:46;;;;;;;;;;;;;;;;;;5076347;28;19931;-77
2023/03/18 04:14:12;;;;;;;;;;;;;;;;;;5076317;28;19932;-76
2023/03/18 04:16:39;;;;;;;;;;;;;;;;;;5076266;28;19980;-76
2023/03/18 04:19:06;;;;;;;;;;;;;;;;;;5074960;28;19931;-76
2023/03/18 04:21:31;;;;;;;;;;;;;;;;;;5076177;28;19960;-77
2023/03/18 04:23:57;;;;;;;;;;;;;;;;;;5076307;28;19908;-77
2023/03/18 04:26:23;;;;;;;;;;;;;;;;;;5076056;28;19909;-76
2023/03/18 04:28:50;;;;;;;;;;;;;;;;;;5076176;28;19912;-76
2023/03/18 04:31:16;;;;;;;;;;;;;;;;;;5074615;28;19912;-76
2023/03/18 04:33:43;;;;;;;;;;;;;;;;;;5075945;28;20269;-77
2023/03/18 04:36:09;;;;;;;;;;;;;;;;;;5076372;28;20027;-76
2023/03/18 04:38:37;;;;;;;;;;;;;;;;;;5076051;28;20377;-76
2023/03/18 04:41:02;;;;;;;;;;;;;;;;;;5075355;28;20015;-78
2023/03/18 04:43:28;;;;;;;;;;;;;;;;;;5075835;28;20443;-76
2023/03/18 04:45:55;;;;;;;;;;;;;;;;;;5075721;28;20281;-76
2023/03/18 04:48:21;;;;;;;;;;;;;;;;;;5075998;28;20001;-76
2023/03/18 04:50:47;;;;;;;;;;;;;;;;;;5075578;28;19983;-76
2023/03/18 04:53:13;;;;;;;;;;;;;;;;;;5074300;28;20276;-77
2023/03/18 04:55:39;;;;;;;;;;;;;;;;;;5075510;28;19994;-76
2023/03/18 04:58:05;;;;;;;;;;;;;;;;;;5075492;28;19991;-77
2023/03/18 05:00:32;;;;;;;;;;;;;;;;;;5075682;28;20446;-77
2023/03/18 05:02:58;;;;;;;;;;;;;;;;;;5074086;28;19941;-77
2023/03/18 05:05:24;;;;;;;;;;;;;;;;;;5075358;28;19908;-77
2023/03/18 05:07:50;;;;;;;;;;;;;;;;;;5075251;28;19908;-77
2023/03/18 05:10:18;;;;;;;;;;;;;;;;;;5075329;28;19935;-76
2023/03/18 05:12:43;;;;;;;;;;;;;;;;;;5075173;28;19915;-77
2023/03/18 05:15:10;;;;;;;;;;;;;;;;;;5073880;28;19913;-76
2023/03/18 05:17:36;;;;;;;;;;;;;;;;;;5074940;28;20007;-76
2023/03/18 05:20:03;;;;;;;;;;;;;;;;;;5073767;28;20349;-76
2023/03/18 05:22:29;;;;;;;;;;;;;;;;;;5075135;28;20331;-76
2023/03/18 05:24:55;;;;;;;;;;;;;;;;;;5075076;28;19909;-78
2023/03/18 05:27:21;;;;;;;;;;;;;;;;;;5074843;28;19915;-77
2023/03/18 05:29:47;;;;;;;;;;;;;;;;;;5073437;28;20288;-77
2023/03/18 05:32:13;;;;;;;;;;;;;;;;;;5075180;28;19909;-77
2023/03/18 05:34:39;;;;;;;;;;;;;;;;;;5075352;28;19916;-76
2023/03/18 05:37:05;;;;;;;;;;;;;;;;;;5074679;28;20288;-76
2023/03/18 05:39:31;;;;;;;;;;;;;;;;;;5073090;28;20404;-77
2023/03/18 05:41:57;;;;;;;;;;;;;;;;;;5075034;28;19908;-76
2023/03/18 05:44:23;;;;;;;;;;;;;;;;;;5074582;28;19915;-77
2023/03/18 05:46:51;;;;;;;;;;;;;;;;;;5074743;28;19913;-76
2023/03/18 05:49:17;;;;;;;;;;;;;;;;;;5074446;28;19962;-75
2023/03/18 05:51:43;;;;;;;;;;;;;;;;;;5073132;28;19913;-77
2023/03/18 05:54:09;;;;;;;;;;;;;;;;;;5074639;28;19952;-76
2023/03/18 05:56:35;;;;;;;;;;;;;;;;;;5074351;28;20364;-76
2023/03/18 05:59:02;;;;;;;;;;;;;;;;;;5074496;28;19909;-76
2023/03/18 06:01:30;;;;;;;;;;;;;;;;;;5072966;28;19916;-77
2023/03/18 06:03:56;;;;;;;;;;;;;;;;;;5074408;28;19957;-75
2023/03/18 06:06:22;;;;;;;;;;;;;;;;;;5074227;28;20377;-77
2023/03/18 06:08:48;;;;;;;;;;;;;;;;;;5074288;28;19909;-76
2023/03/18 06:11:14;;;;;;;;;;;;;;;;;;5074024;28;20376;-77
2023/03/18 06:13:40;;;;;;;;;;;;;;;;;;5074095;28;19913;-77
2023/03/18 06:16:07;;;;;;;;;;;;;;;;;;5074216;28;19909;-76
2023/03/18 06:18:34;;;;;;;;;;;;;;;;;;5074010;28;20280;-77
2023/03/18 06:21:00;;;;;;;;;;;;;;;;;;5072677;28;19916;-76
2023/03/18 06:23:26;;;;;;;;;;;;;;;;;;5073954;28;19974;-76
2023/03/18 06:25:52;;;;;;;;;;;;;;;;;;5074328;28;20372;-76
2023/03/18 06:28:18;;;;;;;;;;;;;;;;;;5072089;28;19908;-76
2023/03/18 06:30:44;;;;;;;;;;;;;;;;;;5073925;28;19913;-76
2023/03/18 06:33:10;;;;;;;;;;;;;;;;;;5073943;28;19919;-76
2023/03/18 06:35:35;;;;;;;;;;;;;;;;;;5072474;28;19916;-75
2023/03/18 06:38:01;;;;;;;;;;;;;;;;;;5073774;28;19909;-75
2023/03/18 06:40:27;;;;;;;;;;;;;;;;;;5073546;28;19920;-77
2023/03/18 06:42:53;;;;;;;;;;;;;;;;;;5072432;28;19958;-76
2023/03/18 06:45:21;;;;;;;;;;;;;;;;;;5073777;28;19947;-77
2023/03/18 06:47:48;;;;;;;;;;;;;;;;;;5073708;28;19916;-76
2023/03/18 06:50:14;;;;;;;;;;;;;;;;;;5072305;28;19974;-75
2023/03/18 06:52:40;;;;;;;;;;;;;;;;;;5073574;28;20000;-76
2023/03/18 06:55:06;;;;;;;;;;;;;;;;;;5073757;28;20042;-77
2023/03/18 06:57:33;;;;;;;;;;;;;;;;;;5073457;28;19915;-76
2023/03/18 06:59:59;;;;;;;;;;;;;;;;;;5073710;28;19909;-77
2023/03/18 07:02:26;;;;;;;;;;;;;;;;;;5073496;28;20007;-75
2023/03/18 07:04:52;;;;;;;;;;;;;;;;;;5073658;28;19909;-75
2023/03/18 07:07:18;;;;;;;;;;;;;;;;;;5073460;28;19909;-76
2023/03/18 07:09:44;;;;;;;;;;;;;;;;;;5073655;28;19963;-76
2023/03/18 07:12:09;;;;;;;;;;;;;;;;;;5073581;28;19912;-77
2023/03/18 07:14:35;;;;;;;;;;;;;;;;;;5073361;28;19908;-77
2023/03/18 07:17:02;;;;;;;;;;;;;;;;;;5073344;28;19977;-77
2023/03/18 07:19:28;;;;;;;;;;;;;;;;;;5073302;28;20368;-75
2023/03/18 07:21:55;;;;;;;;;;;;;;;;;;5072003;28;19966;-77
2023/03/18 07:24:21;;;;;;;;;;;;;;;;;;5073464;28;19995;-75
2023/03/18 07:26:49;;;;;;;;;;;;;;;;;;5073420;28;19974;-77
2023/03/18 07:29:15;;;;;;;;;;;;;;;;;;5073207;28;19958;-77
2023/03/18 07:31:42;;;;;;;;;;;;;;;;;;5073218;28;19912;-75
2023/03/18 07:34:08;;;;;;;;;;;;;;;;;;5073407;28;19916;-77
2023/03/18 07:36:35;;;;;;;;;;;;;;;;;;5073187;28;19915;-76
2023/03/18 07:39:02;;;;;;;;;;;;;;;;;;5072941;28;19908;-76
2023/03/18 07:41:28;;;;;;;;;;;;;;;;;;5075042;28;19916;-78
2023/03/18 07:43:54;;;;;;;;;;;;;;;;;;5076929;28;19908;-76
2023/03/18 07:46:20;;;;;;;;;;;;;;;;;;5077090;28;19919;-78
2023/03/18 07:48:46;;;;;;;;;;;;;;;;;;5076946;28;20034;-77
2023/03/18 07:51:14;;;;;;;;;;;;;;;;;;5076657;28;19970;-75
2023/03/18 07:53:40;;;;;;;;;;;;;;;;;;5075424;28;20334;-76
2023/03/18 07:56:06;;;;;;;;;;;;;;;;;;5075330;28;19916;-77
2023/03/18 07:58:33;;;;;;;;;;;;;;;;;;5077275;28;19913;-77
2023/03/18 08:00:58;;;;;;;;;;;;;;;;;;5076623;28;19908;-77
2023/03/18 08:03:24;;;;;;;;;;;;;;;;;;5076569;28;19909;-76
2023/03/18 08:05:51;;;;;;;;;;;;;;;;;;5076646;28;19912;-78
2023/03/18 08:08:17;;;;;;;;;;;;;;;;;;5076428;28;19915;-77
2023/03/18 08:10:43;;;;;;;;;;;;;;;;;;5075060;28;19916;-78
2023/03/18 08:13:09;;;;;;;;;;;;;;;;;;5075099;28;19931;-76
2023/03/18 08:15:35;;;;;;;;;;;;;;;;;;5076285;28;19912;-77
2023/03/18 08:18:01;;;;;;;;;;;;;;;;;;5076264;28;19908;-77
2023/03/18 08:20:27;;;;;;;;;;;;;;;;;;5074998;28;19909;-76
2023/03/18 08:22:54;;;;;;;;;;;;;;;;;;5074967;28;19958;-76
2023/03/18 08:25:22;;;;;;;;;;;;;;;;;;5076386;28;19908;-78
2023/03/18 08:27:48;;;;;;;;;;;;;;;;;;5075964;28;19959;-78
2023/03/18 08:30:14;;;;;;;;;;;;;;;;;;5076075;28;20337;-78
2023/03/18 08:32:40;;;;;;;;;;;;;;;;;;5075991;28;20416;-78
2023/03/18 08:35:08;;;;;;;;;;;;;;;;;;5076101;28;19909;-78
2023/03/18 08:37:35;;;;;;;;;;;;;;;;;;5075917;28;19908;-78
2023/03/18 08:40:02;;;;;;;;;;;;;;;;;;5075691;28;19921;-76
2023/03/18 08:42:30;;;;;;;;;;;;;;;;;;5074198;28;20127;-78
2023/03/18 08:44:56;;;;;;;;;;;;;;;;;;5074477;28;20420;-78
2023/03/18 08:47:24;;;;;;;;;;;;;;;;;;5076277;28;19947;-78
2023/03/18 08:49:50;;;;;;;;;;;;;;;;;;5075594;28;20292;-79
2023/03/18 08:52:16;;;;;;;;;;;;;;;;;;5073778;28;19909;-77
2023/03/18 08:54:42;;;;;;;;;;;;;;;;;;5074223;28;19909;-77
2023/03/18 08:57:09;;;;;;;;;;;;;;;;;;5075510;28;20361;-77
2023/03/18 08:59:35;;;;;;;;;;;;;;;;;;5075589;28;19957;-77
2023/03/18 09:02:01;;;;;;;;;;;;;;;;;;5074292;28;19943;-76
2023/03/18 09:04:28;;;;;;;;;;;;;;;;;;5075662;28;20258;-77
2023/03/18 09:06:55;;;;;;;;;;;;;;;;;;5075240;28;19909;-77
2023/03/18 09:09:21;;;;;;;;;;;;;;;;;;5075254;28;19909;-79
2023/03/18 09:11:48;;;;;;;;;;;;;;;;;;5075223;28;19913;-77
2023/03/18 09:14:14;;;;;;;;;;;;;;;;;;5075720;28;19908;-78
2023/03/18 09:16:40;;;;;;;;;;;;;;;;;;5073788;28;19919;-76
2023/03/18 09:19:06;;;;;;;;;;;;;;;;;;5075030;28;19959;-77
2023/03/18 09:21:32;;;;;;;;;;;;;;;;;;5075242;28;19908;-77
2023/03/18 09:23:58;;;;;;;;;;;;;;;;;;5074992;28;19909;-77
2023/03/18 09:26:24;;;;;;;;;;;;;;;;;;5074954;28;19908;-79
2023/03/18 09:28:50;;;;;;;;;;;;;;;;;;5073570;28;19919;-79
2023/03/18 09:31:17;;;;;;;;;;;;;;;;;;5058750;28;19924;-78
2023/03/18 09:33:43;;;;;;;;;;;;;;;;;;5054810;28;19947;-78
2023/03/18 09:36:09;;;;;;;;;;;;;;;;;;5056945;28;19940;-79
2023/03/18 09:38:36;;;;;;;;;;;;;;;;;;5074088;28;19916;-78
2023/03/18 09:41:02;;;;;;;;;;;;;;;;;;5062747;28;19956;-77
2023/03/18 09:43:28;;;;;;;;;;;;;;;;;;5055041;28;20354;-77
2023/03/18 09:45:54;;;;;;;;;;;;;;;;;;5053160;28;19909;-79
2023/03/18 09:48:21;;;;;;;;;;;;;;;;;;5054450;28;19919;-76
2023/03/18 09:50:47;;;;;;;;;;;;;;;;;;5053082;28;19943;-76
2023/03/18 09:53:13;;;;;;;;;;;;;;;;;;5053447;28;19916;-76
2023/03/18 09:55:39;;;;;;;;;;;;;;;;;;5054588;28;19944;-77
2023/03/18 09:58:06;;;;;;;;;;;;;;;;;;5053210;28;19948;-78
2023/03/18 10:00:32;;;;;;;;;;;;;;;;;;5058128;28;19999;-79
2023/03/18 10:02:59;;;;;;;;;;;;;;;;;;5074108;28;19915;-77
2023/03/18 10:05:25;;;;;;;;;;;;;;;;;;5074095;28;19909;-77
2023/03/18 10:07:51;;;;;;;;;;;;;;;;;;5073478;28;19917;-78
2023/03/18 10:10:18;;;;;;;;;;;;;;;;;;5073165;28;19920;-76
2023/03/18 10:12:45;;;;;;;;;;;;;;;;;;5074366;28;19908;-79
2023/03/18 10:15:11;;;;;;;;;;;;;;;;;;5072908;28;19955;-77
2023/03/18 10:17:40;;;;;;;;;;;;;;;;;;5073671;28;19916;-77
2023/03/18 10:20:05;;;;;;;;;;;;;;;;;;5068614;28;20387;-77
2023/03/18 10:22:31;;;;;;;;;;;;;;;;;;5053811;28;20003;-77
2023/03/18 10:24:57;;;;;;;;;;;;;;;;;;5052646;28;19931;-76
2023/03/18 10:27:23;;;;;;;;;;;;;;;;;;5053763;28;20270;-76
2023/03/18 10:29:49;;;;;;;;;;;;;;;;;;5053522;28;20413;-75
2023/03/18 10:32:15;;;;;;;;;;;;;;;;;;5030075;28;19917;-76
2023/03/18 10:34:41;;;;;;;;;;;;;;;;;;5053777;28;19935;-76
2023/03/18 10:37:08;;;;;;;;;;;;;;;;;;5052583;28;20350;-77
2023/03/18 10:39:34;;;;;;;;;;;;;;;;;;5053634;28;19925;-77
2023/03/18 10:42:00;;;;;;;;;;;;;;;;;;5069557;28;19982;-77
2023/03/18 10:44:25;;;;;;;;;;;;;;;;;;5073654;28;19909;-76
2023/03/18 10:46:52;;;;;;;;;;;;;;;;;;5073632;28;19953;-78
2023/03/18 10:49:18;;;;;;;;;;;;;;;;;;5073980;28;19913;-74
2023/03/18 10:51:44;;;;;;;;;;;;;;;;;;5060213;28;20003;-75
2023/03/18 10:54:10;;;;;;;;;;;;;;;;;;5054028;28;19913;-75
2023/03/18 10:56:36;;;;;;;;;;;;;;;;;;5053774;28;19908;-76
2023/03/18 10:59:02;;;;;;;;;;;;;;;;;;5053473;28;19909;-76
2023/03/18 11:01:28;;;;;;;;;;;;;;;;;;5063905;28;19915;-74
2023/03/18 11:03:54;;;;;;;;;;;;;;;;;;5073417;28;19915;-73
2023/03/18 11:06:20;;;;;;;;;;;;;;;;;;5073555;28;19909;-75
2023/03/18 11:08:46;;;;;;;;;;;;;;;;;;5073494;28;19958;-75
2023/03/18 11:11:12;;;;;;;;;;;;;;;;;;5073344;28;19912;-75
2023/03/18 11:13:40;;;;;;;;;;;;;;;;;;5073346;28;20315;-74
2023/03/18 11:16:06;;;;;;;;;;;;;;;;;;5076552;28;19908;-74
2023/03/18 11:18:33;;;;;;;;;;;;;;;;;;5077924;28;19958;-76
2023/03/18 11:21:00;;;;;;;;;;;;;;;;;;5076307;28;19913;-75
2023/03/18 11:23:34;;;;;;;;;;;;;;;;;;5057160;28;19918;-75
2023/03/18 11:26:01;;;;;;;;;;;;;;;;;;5073466;28;19912;-76
2023/03/18 11:28:28;;;;;;;;;;;;;;;;;;5071874;28;20383;-75
2023/03/18 11:30:54;;;;;;;;;;;;;;;;;;5055783;28;19920;-74
2023/03/18 11:33:21;;;;;;;;;;;;;;;;;;5057062;28;19919;-76
2023/03/18 11:35:47;;;;;;;;;;;;;;;;;;5057117;28;20281;-75
2023/03/18 11:38:13;;;;;;;;;;;;;;;;;;5057011;28;19915;-76
2023/03/18 11:40:39;;;;;;;;;;;;;;;;;;5056680;28;20440;-75
2023/03/18 11:43:05;;;;;;;;;;;;;;;;;;5055488;28;19916;-78
2023/03/18 11:45:31;;;;;;;;;;;;;;;;;;5056836;28;19995;-75
2023/03/18 11:47:57;;;;;;;;;;;;;;;;;;5055375;28;20258;-77
2023/03/18 11:50:24;;;;;;;;;;;;;;;;;;5056673;28;19959;-76
2023/03/18 11:52:51;;;;;;;;;;;;;;;;;;5055704;28;19913;-76
2023/03/18 11:55:17;;;;;;;;;;;;;;;;;;5053828;28;20326;-78
2023/03/18 11:57:44;;;;;;;;;;;;;;;;;;5054702;28;19912;-76
2023/03/18 12:00:10;;;;;;;;;;;;;;;;;;5054839;28;19919;-76
2023/03/18 12:02:35;;;;;;;;;;;;;;;;;;5055529;28;19909;-79
2023/03/18 12:05:01;;;;;;;;;;;;;;;;;;5055527;28;20003;-78
2023/03/18 12:07:29;;;;;;;;;;;;;;;;;;5056075;28;19948;-77
2023/03/18 12:09:55;;;;;;;;;;;;;;;;;;5055035;28;19913;-76
2023/03/18 12:12:21;;;;;;;;;;;;;;;;;;5056586;28;19909;-76
2023/03/18 12:14:48;;;;;;;;;;;;;;;;;;5056423;28;19909;-80
2023/03/18 12:17:14;;;;;;;;;;;;;;;;;;5055005;28;20039;-78
2023/03/18 12:19:40;;;;;;;;;;;;;;;;;;5056617;28;19970;-79
2023/03/18 12:22:06;;;;;;;;;;;;;;;;;;5054921;28;19916;-78
2023/03/18 12:24:32;;;;;;;;;;;;;;;;;;5056153;28;19916;-80
2023/03/18 12:26:58;;;;;;;;;;;;;;;;;;5055183;28;19909;-79
2023/03/18 12:29:24;;;;;;;;;;;;;;;;;;5056034;28;19912;-80
2023/03/18 12:31:50;;;;;;;;;;;;;;;;;;5055939;28;20337;-80
2023/03/18 12:34:16;;;;;;;;;;;;;;;;;;5055984;28;19951;-77
2023/03/18 12:36:43;;;;;;;;;;;;;;;;;;5056094;28;19920;-77
2023/03/18 12:39:09;;;;;;;;;;;;;;;;;;5055665;28;20373;-77
2023/03/18 12:41:35;;;;;;;;;;;;;;;;;;5056241;28;20015;-77
2023/03/18 12:44:01;;;;;;;;;;;;;;;;;;5055782;28;19916;-77
2023/03/18 12:46:27;;;;;;;;;;;;;;;;;;5055861;28;19995;-77
2023/03/18 12:48:53;;;;;;;;;;;;;;;;;;5054396;28;20297;-76
2023/03/18 12:51:19;;;;;;;;;;;;;;;;;;5055583;28;19912;-77
2023/03/18 12:53:45;;;;;;;;;;;;;;;;;;5055612;28;19909;-76
2023/03/18 12:56:11;;;;;;;;;;;;;;;;;;5055758;28;20010;-76
2023/03/18 12:58:37;;;;;;;;;;;;;;;;;;5054207;28;20369;-78
2023/03/18 13:01:07;;;;;;;;;;;;;;;;;;5055363;28;19993;-78
2023/03/18 13:03:33;;;;;;;;;;;;;;;;;;5055473;28;19909;-77
2023/03/18 13:05:59;;;;;;;;;;;;;;;;;;5055613;28;19916;-77
2023/03/18 13:08:25;;;;;;;;;;;;;;;;;;5055335;28;19952;-78
2023/03/18 13:10:51;;;;;;;;;;;;;;;;;;5053899;28;19920;-76
2023/03/18 13:13:16;;;;;;;;;;;;;;;;;;5055792;28;19908;-77
2023/03/18 13:15:42;;;;;;;;;;;;;;;;;;5055294;28;19916;-77
2023/03/18 13:18:10;;;;;;;;;;;;;;;;;;5055109;28;19909;-75
2023/03/18 13:20:36;;;;;;;;;;;;;;;;;;5055086;28;19909;-76
2023/03/18 13:23:02;;;;;;;;;;;;;;;;;;5055056;28;19978;-76
2023/03/18 13:25:28;;;;;;;;;;;;;;;;;;5055329;28;20289;-75
2023/03/18 13:27:54;;;;;;;;;;;;;;;;;;5054981;28;19909;-76
2023/03/18 13:30:21;;;;;;;;;;;;;;;;;;5054826;28;19923;-76
2023/03/18 13:32:46;;;;;;;;;;;;;;;;;;5054914;28;19991;-76
2023/03/18 13:35:13;;;;;;;;;;;;;;;;;;5055306;28;20390;-76
2023/03/18 13:37:40;;;;;;;;;;;;;;;;;;5054665;28;19909;-76
2023/03/18 13:40:06;;;;;;;;;;;;;;;;;;5054533;28;19966;-77
2023/03/18 13:42:32;;;;;;;;;;;;;;;;;;5053370;28;19909;-73
2023/03/18 13:44:58;;;;;;;;;;;;;;;;;;5053364;28;19931;-75
2023/03/18 13:47:24;;;;;;;;;;;;;;;;;;5054539;28;20357;-75
2023/03/18 13:49:51;;;;;;;;;;;;;;;;;;5054591;28;19920;-75
2023/03/18 13:52:17;;;;;;;;;;;;;;;;;;5054726;28;19908;-76
2023/03/18 13:54:42;;;;;;;;;;;;;;;;;;5054430;28;19909;-77
2023/03/18 13:57:08;;;;;;;;;;;;;;;;;;5054452;28;19909;-77
2023/03/18 13:59:34;;;;;;;;;;;;;;;;;;5054821;28;19948;-75
2023/03/18 14:02:01;;;;;;;;;;;;;;;;;;5054317;28;19917;-75
2023/03/18 14:04:29;;;;;;;;;;;;;;;;;;5054461;28;20369;-74
2023/03/18 14:06:55;;;;;;;;;;;;;;;;;;5052919;28;19908;-76
2023/03/18 14:09:21;;;;;;;;;;;;;;;;;;5054254;28;19916;-75
2023/03/18 14:11:48;;;;;;;;;;;;;;;;;;5054126;28;19909;-75
2023/03/18 14:14:14;;;;;;;;;;;;;;;;;;5054260;28;19909;-75
2023/03/18 14:16:41;;;;;;;;;;;;;;;;;;5054048;28;19912;-75
2023/03/18 14:19:07;;;;;;;;;;;;;;;;;;5052792;28;20269;-75
2023/03/18 14:21:32;;;;;;;;;;;;;;;;;;5053872;28;19919;-74
2023/03/18 14:23:58;;;;;;;;;;;;;;;;;;5054321;28;19996;-74
2023/03/18 14:26:25;;;;;;;;;;;;;;;;;;5054234;28;19952;-75
2023/03/18 14:28:52;;;;;;;;;;;;;;;;;;5052644;28;19909;-75
2023/03/18 14:31:18;;;;;;;;;;;;;;;;;;5053842;28;19999;-74
2023/03/18 14:33:44;;;;;;;;;;;;;;;;;;5054020;28;19909;-75
2023/03/18 14:36:10;;;;;;;;;;;;;;;;;;5054079;28;20383;-76
2023/03/18 14:38:36;;;;;;;;;;;;;;;;;;5053989;28;19909;-75
2023/03/18 14:41:02;;;;;;;;;;;;;;;;;;5053209;28;19943;-75
2023/03/18 14:43:28;;;;;;;;;;;;;;;;;;5053714;28;19908;-74
2023/03/18 14:45:54;;;;;;;;;;;;;;;;;;5053995;28;20366;-74
2023/03/18 14:48:21;;;;;;;;;;;;;;;;;;5053915;28;19966;-74
2023/03/18 14:50:47;;;;;;;;;;;;;;;;;;5053329;28;20026;-75
2023/03/18 14:53:14;;;;;;;;;;;;;;;;;;5053561;28;19938;-76
2023/03/18 14:55:40;;;;;;;;;;;;;;;;;;5053544;28;20161;-76
2023/03/18 14:58:06;;;;;;;;;;;;;;;;;;5053519;28;19909;-76
2023/03/18 15:00:32;;;;;;;;;;;;;;;;;;5053588;28;19912;-74
2023/03/18 15:02:58;;;;;;;;;;;;;;;;;;5053470;28;19909;-75
2023/03/18 15:05:24;;;;;;;;;;;;;;;;;;5052734;28;19962;-73
2023/03/18 15:07:51;;;;;;;;;;;;;;;;;;5053472;28;19913;-74
2023/03/18 15:10:18;;;;;;;;;;;;;;;;;;5053442;28;19909;-74
2023/03/18 15:12:44;;;;;;;;;;;;;;;;;;5053377;28;20057;-75
2023/03/18 15:15:11;;;;;;;;;;;;;;;;;;5053375;28;20012;-73
2023/03/18 15:17:37;;;;;;;;;;;;;;;;;;5053526;28;19916;-74
2023/03/18 15:20:04;;;;;;;;;;;;;;;;;;5053261;28;19912;-74
2023/03/18 15:22:30;;;;;;;;;;;;;;;;;;5053404;28;19948;-73
2023/03/18 15:24:56;;;;;;;;;;;;;;;;;;5053426;28;19909;-74
2023/03/18 15:27:22;;;;;;;;;;;;;;;;;;5053290;28;20324;-73
2023/03/18 15:29:48;;;;;;;;;;;;;;;;;;5053641;28;19916;-74
2023/03/18 15:32:14;;;;;;;;;;;;;;;;;;5051914;28;19909;-74
2023/03/18 15:34:41;;;;;;;;;;;;;;;;;;5053259;28;19919;-74
2023/03/18 15:37:07;;;;;;;;;;;;;;;;;;5053209;28;19908;-75
2023/03/18 15:39:33;;;;;;;;;;;;;;;;;;5053286;28;19921;-73
2023/03/18 15:41:59;;;;;;;;;;;;;;;;;;5053471;28;20285;-74
2023/03/18 15:44:25;;;;;;;;;;;;;;;;;;5053070;28;19916;-74
2023/03/18 15:46:53;;;;;;;;;;;;;;;;;;5053059;28;19916;-75
2023/03/18 15:49:19;;;;;;;;;;;;;;;;;;5053020;28;19956;-75
2023/03/18 15:51:46;;;;;;;;;;;;;;;;;;5053003;28;20010;-75
2023/03/18 15:54:13;;;;;;;;;;;;;;;;;;5052981;28;19915;-76
2023/03/18 15:56:39;;;;;;;;;;;;;;;;;;5052875;28;19909;-74
2023/03/18 15:59:05;;;;;;;;;;;;;;;;;;5053172;28;19963;-74
2023/03/18 16:01:31;;;;;;;;;;;;;;;;;;5053470;28;19913;-73
2023/03/18 16:03:57;;;;;;;;;;;;;;;;;;5056611;28;20009;-73
2023/03/18 16:06:25;;;;;;;;;;;;;;;;;;5056545;28;20369;-75
2023/03/18 16:08:51;;;;;;;;;;;;;;;;;;5056464;28;19916;-74
2023/03/18 16:11:17;;;;;;;;;;;;;;;;;;5056686;28;19908;-73
2023/03/18 16:13:44;;;;;;;;;;;;;;;;;;5056440;28;19909;-74
2023/03/18 16:16:10;;;;;;;;;;;;;;;;;;5056542;28;19909;-72
2023/03/18 16:18:36;;;;;;;;;;;;;;;;;;5056292;28;19916;-77
2023/03/18 16:21:01;;;;;;;;;;;;;;;;;;5056636;28;20288;-73
2023/03/18 16:23:28;;;;;;;;;;;;;;;;;;5056218;28;20361;-74
2023/03/18 16:25:55;;;;;;;;;;;;;;;;;;5056169;28;19909;-74
2023/03/18 16:28:21;;;;;;;;;;;;;;;;;;5056258;28;19919;-73
2023/03/18 16:30:47;;;;;;;;;;;;;;;;;;5056061;28;19909;-75
2023/03/18 16:33:12;;;;;;;;;;;;;;;;;;5056048;28;19992;-73
2023/03/18 16:35:38;;;;;;;;;;;;;;;;;;5056318;28;20297;-74
2023/03/18 16:38:05;;;;;;;;;;;;;;;;;;5055926;28;19912;-74